Metar Cercanos

 

LEPA - Palma De Mallorc, Spain
Distance from station: ONO 38km
Actualización: 23/10/2018 16:00
Few Clouds
Few Clouds
 Viento del NE
Viento: NE 13 km/h
Temperatura: 24°C
Rocío: 10°C
Humedad: 41%
Barómetro: 1024 hPa
Clouds: Few Clouds
Visibility: 10 km
Cloud details: Few Clouds 671 m
2018/10/23 14:00 LEPA 231400Z 04007KT 350V100 9999 FEW022 24/10 Q1024 NOSIG
LEMH - Mahon/Menorca Is, Spain
Distance from station: ENE 105km
Actualización: 23/10/2018 16:00
Few Clouds
Few Clouds
 Viento del N
Viento: N 28 km/h
Temperatura: 20°C
Rocío: 14°C
Humedad: 69%
Barómetro: 1024 hPa
Clouds: Few Clouds
Visibility: 10 km
Cloud details: Few Clouds 762 m
2018/10/23 14:00 LEMH 231400Z 01015KT 9999 FEW025 20/14 Q1024
 
LEIB - Ibiza/Es Codola, Spain
Distance from station: OSO 165km
Actualización: 23/10/2018 16:00
Few Clouds
Few Clouds
 Viento del E
Viento: E 17 km/h
Temperatura: 23°C
Rocío: 14°C
Humedad: 57%
Barómetro: 1024 hPa
Clouds: Few Clouds
Visibility: 10 km
Cloud details: Few Clouds 1372 m
2018/10/23 14:00 LEIB 231400Z 09009KT 9999 FEW045 23/14 Q1024 NOSIG
LEBL - Barcelona Airpor, Spain
Distance from station: NNO 225km
Actualización: 23/10/2018 16:00
Despejado
Despejado
 Viento del SO
Viento: SO 15 km/h
Temperatura: 20°C
Rocío: 12°C
Humedad: 60%
Barómetro: 1024 hPa
Resumen: Despejado
Visibility: greater than 10 km
2018/10/23 14:00 LEBL 231400Z 22008KT CAVOK 20/12 Q1024 NOSIG
 
LEVC - Valencia (civ/Mi, Spain
Distance from station: NO 188km
Actualización: 23/10/2018 16:00
Few Clouds
Few Clouds
 Viento del ESE
Viento: ESE 9 km/h
Temperatura: 22°C
Rocío: 15°C
Humedad: 65%
Barómetro: 1025 hPa
Clouds: Few Clouds
Visibility: 10 km
Cloud details: Few Clouds 762 m
2018/10/23 14:00 LEVC 231400Z 12005KT 060V170 9999 FEW025 22/15 Q1025 NOSIG
LEGE - Gerona/Costa Bra, Spain
Distance from station: N 276km
Actualización: 23/10/2018 16:00
Few Clouds
Few Clouds
 Viento del E
Viento: E 6 km/h
Temperatura: 23°C
Rocío: 8°C
Humedad: 38%
Barómetro: 1024 hPa
Clouds: Few Clouds
Visibility: 10 km
Cloud details: Few Clouds 1524 m
2018/10/23 14:00 LEGE 231400Z 09003KT 030V140 9999 FEW050 23/08 Q1024
 
LEAL - Alicante/El Alte, Spain
Distance from station: OSO 344km
Actualización: 23/10/2018 16:00
Parcialmente nuboso
Parcialmente nuboso
 Viento del E
Viento: E 11 km/h
Temperatura: 23°C
Rocío: 17°C
Humedad: 69%
Barómetro: 1025 hPa
Clouds: Parcialmente nuboso
Visibility: 10 km
Cloud details: Few Clouds 762 m
Parcialmente nuboso 1981 m
2018/10/23 14:00 LEAL 231400Z 08006KT 040V130 9999 FEW025 SCT065 23/17 Q1025 NOSIG
LEAM - Almeria Airport, Spain
Distance from station: SSO 56km
Actualización: 23/10/2018 16:00
Few Clouds
Few Clouds
 Viento del E
Viento: E 31 km/h
Temperatura: 25°C
Rocío: 16°C
Humedad: 57%
Barómetro: 1023 hPa
Clouds: Few Clouds
Visibility: 10 km
Cloud details: Few Clouds 1067 m
2018/10/23 14:00 LEAM 231400Z 08017KT 050V120 9999 FEW035 25/16 Q1023
 
LEZG - Zaragoza (mil/Ci, Spain
Distance from station: NO 431km
Actualización: 23/10/2018 16:00
Despejado
Despejado
 Viento del ONO
Viento: ONO 19 km/h
Temperatura: 22°C
Rocío: 7°C
Humedad: 38%
Barómetro: 1026 hPa
Resumen: Despejado
Visibility: greater than 10 km
2018/10/23 14:00 LEZG 231400Z 30010KT 260V330 CAVOK 22/07 Q1026
LEMD - Madrid/Barajas, Spain
Distance from station: ONO 234km
Actualización: 23/10/2018 16:00
Despejado
Despejado
 Viento del varies
Viento: varies 2 km/h
Temperatura: 22°C
Rocío: 12°C
Humedad: 53%
Barómetro: 1026 hPa
Resumen: Despejado
Visibility: greater than 10 km
2018/10/23 14:00 LEMD 231400Z VRB01KT CAVOK 22/12 Q1026 NOSIG
 
LEGR - Granada Airport, Spain
Distance from station: OSO 62km
Actualización: 23/10/2018 16:00
Few Clouds
Few Clouds
 Viento del varies
Viento: varies 6 km/h
Temperatura: 23°C
Rocío: 11°C
Humedad: 47%
Barómetro: 1024 hPa
Clouds: Few Clouds
Visibility: 10 km
Cloud details: Few Clouds 1219 m
2018/10/23 14:00 LEGR 231400Z VRB03KT 9999 FEW040TCU 23/11 Q1024
LEMG - Malaga (civ/Mil), Spain
Distance from station: OSO 227km
Actualización: 23/10/2018 16:00
Muy nuboso
Muy nuboso
 Viento del ESE
Viento: ESE 13 km/h
Temperatura: 23°C
Rocío: 18°C
Humedad: 74%
Barómetro: 1024 hPa
Clouds: Muy nuboso
Visibility: 10 km
Cloud details: Few Clouds 762 m
Muy nuboso 1524 m
2018/10/23 14:00 LEMG 231400Z 11007KT 080V160 9999 FEW025 BKN050 23/18 Q1024 NOSIG
 
LEZL - Sevilla (civ/Mil, Spain
Distance from station: S 318km
Actualización: 23/10/2018 16:00
Few Clouds
Few Clouds
 Viento del NNE
Viento: NNE 6 km/h
Temperatura: 25°C
Rocío: 16°C
Humedad: 57%
Barómetro: 1023 hPa
Clouds: Few Clouds
Visibility: 10 km
Cloud details: Few Clouds 1219 m
2018/10/23 14:00 LEZL 231400Z 03003KT 340V080 9999 FEW040 25/16 Q1023 NOSIG
LEVT - Vitoria, Spain
Distance from station: NO 226km
Actualización: 23/10/2018 16:00
Few Clouds
Few Clouds
 Viento del NNE
Viento: NNE 20 km/h
Temperatura: 16°C
Rocío: 9°C
Humedad: 63%
Barómetro: 1029 hPa
Clouds: Few Clouds
Visibility: 10 km
Cloud details: Few Clouds 762 m
2018/10/23 14:00 LEVT 231400Z 02011KT 340V050 9999 FEW025 16/09 Q1029
 
LEBB - Bilbao/Sondica, Spain
Distance from station: NNO 235km
Actualización: 23/10/2018 16:00
Parcialmente nuboso
Parcialmente nuboso
 Viento del N
Viento: N 17 km/h
Temperatura: 18°C
Rocío: 12°C
Humedad: 68%
Barómetro: 1030 hPa
Clouds: Parcialmente nuboso
Visibility: 10 km
Cloud details: Few Clouds 732 m
Parcialmente nuboso 975 m
2018/10/23 14:00 LEBB 231400Z 36009KT 330V040 9999 FEW024 SCT032 18/12 Q1030 NOSIG
LESO - San Sebastian/Fu, Spain
Distance from station: N 231km
Actualización: 23/10/2018 16:00
Few Clouds
Few Clouds
 Viento del NO
Viento: NO 11 km/h
Temperatura: 17°C
Rocío: 11°C
Humedad: 68%
Barómetro: 1030 hPa
Clouds: Few Clouds
Visibility: 10 km
Cloud details: Few Clouds 792 m
2018/10/23 14:00 LESO 231400Z 32006KT 260V010 9999 FEW026 17/11 Q1030
 
LEVD - Valladolid(Mil/C, Spain
Distance from station: ONO 239km
Actualización: 23/10/2018 16:00
Despejado
Despejado
 Viento del ENE
Viento: ENE 11 km/h
Temperatura: 19°C
Rocío: 2°C
Humedad: 32%
Barómetro: 1027 hPa
Resumen: Despejado
Visibility: greater than 10 km
2018/10/23 14:00 LEVD 231400Z 06006KT 030V090 CAVOK 19/02 Q1027
LESA - Salamanca (civ/M, Spain
Distance from station: ONO 349km
Actualización: 23/10/2018 16:00
Despejado
Despejado
 Viento del ENE
Viento: ENE 6 km/h
Temperatura: 19°C
Rocío: 6°C
Humedad: 43%
Barómetro: 1026 hPa
Resumen: Despejado
Visibility: greater than 10 km
2018/10/23 14:00 LESA 231400Z 07003KT 010V150 CAVOK 19/06 Q1026
 
LEXJ - Santander/Paraya, Spain
Distance from station: NNO 247km
Actualización: 23/10/2018 16:00
Parcialmente nuboso
Parcialmente nuboso
 Viento del NE
Viento: NE 17 km/h
Temperatura: 17°C
Rocío: 14°C
Humedad: 83%
Barómetro: 1031 hPa
Clouds: Parcialmente nuboso
Visibility: 10 km
Cloud details: Parcialmente nuboso 792 m
2018/10/23 14:00 LEXJ 231400Z 05009KT 020V100 9999 SCT026 17/14 Q1031
LEAS - Asturias/Aviles, Spain
Distance from station: NO 214km
Actualización: 23/10/2018 16:00
Parcialmente nuboso
Parcialmente nuboso
 Viento del E
Viento: E 26 km/h, Racha: 44 km/h
Temperatura: 18°C
Rocío: 13°C
Humedad: 73%
Barómetro: 1029 hPa
Clouds: Parcialmente nuboso
Visibility: 10 km
Cloud details: Parcialmente nuboso 610 m
2018/10/23 14:00 LEAS 231400Z 09014G24KT 050V120 9999 SCT020 18/13 Q1029 NOSIG
 
LECO - La Coruna/Alvedr, Spain
Distance from station: ONO 222km
Actualización: 23/10/2018 16:00
Few Clouds
Few Clouds
 Viento del E
Viento: E 15 km/h
Temperatura: 22°C
Rocío: 11°C
Humedad: 50%
Barómetro: 1026 hPa
Clouds: Few Clouds
Visibility: 10 km
Cloud details: Few Clouds 914 m
2018/10/23 14:00 LECO 231400Z 08008KT 030V110 9999 FEW030 22/11 Q1026 NOSIG
LEVX - Vigo/Peinador, Spain
Distance from station: O 214km
Actualización: 23/10/2018 16:00
Despejado
Despejado
 Viento del varies
Viento: varies 2 km/h
Temperatura: 24°C
Rocío: 11°C
Humedad: 44%
Barómetro: 1024 hPa
Resumen: Despejado
Visibility: greater than 10 km
2018/10/23 14:00 LEVX 231400Z VRB01KT CAVOK 24/11 Q1024 NOSIG